• Join FlightAware (Why Join?)
  • Login
  • US Flag 
05:13PM EST


 

Airport Tracker/Info


-or-


 

Live Flight TrackerFlight Track Log ✈ BJS542 ✈ 29-Jun-2013 ✈ KSFO - KLAS

Flight Track Log - Related Links

Times and Time Zones

All times are in EDT time to prevent confusion due to time zone crossing. See the BJS542 flight status page for this flight to view local times or setup timezone preferences in your user account.

Time Position Orientation Groundspeed Altitude Reporting Facility
EDT Latitude Longitude Course Direction KTS MPH feet Rate Location/Type
04:09PM 37.6333 -122.3667 90° East 167 192 1,300  Level Northern Cal TRACON
04:10PM 37.6833 -122.3667 360° North 202 232 4,800 2,760 Climbing Northern Cal TRACON
04:11PM 37.6667 -122.4333 252° West 266 306 6,900 2,400 Climbing Northern Cal TRACON
04:12PM 37.6111 -122.4458 190° South 288 331 9,000 3,000 Climbing Oakland Center
04:13PM 37.5314 -122.4381 176° South 308 354 12,300 3,000 Climbing Oakland Center
04:14PM 37.4842 -122.3431 122° Southeast 323 372 15,200 2,700 Climbing Oakland Center
04:15PM 37.1500 -121.9567 90° East  Level FlightAware Approximate
04:15PM 37.4581 -122.2275 106° East 342 394 17,900  Level Oakland Center
04:16PM 37.4303 -122.1061 106° East 359 413 20,300 2,340 Climbing Oakland Center
04:17PM 37.4003 -121.9775 106° East 378 435 22,800 2,280 Climbing Oakland Center
04:18PM 37.3700 -121.8464 106° East 389 448 25,000 1,980 Climbing Oakland Center
04:19PM 37.3369 -121.6983 106° East 405 466 26,900 1,740 Climbing Oakland Center
04:20PM 37.3044 -121.5542 106° East 421 484 28,600 1,620 Climbing Oakland Center
04:21PM 37.2706 -121.4083 106° East 433 498 30,300 1,620 Climbing Oakland Center
04:22PM 37.2350 -121.2586 107° East 445 512 32,000 1,260 Climbing Oakland Center
04:23PM 37.1997 -121.1067 106° East 455 524 33,000 480 Climbing Oakland Center
04:24PM 37.1533 -120.9117 107° East 486 559 33,000  Level Oakland Center
04:25PM 37.1144 -120.7494 107° East 489 563 33,000  Level Oakland Center
04:26PM 37.0747 -120.5861 107° East 490 564 33,000  Level Oakland Center
04:27PM 37.0364 -120.4247 107° East 488 562 33,000  Level Oakland Center
04:28PM 36.9969 -120.2658 107° East 482 555 33,000  Level Oakland Center
04:29PM 36.9708 -120.1106 102° East 480 552 33,000  Level Oakland Center
04:30PM 37.0031 -119.9192 78° East 471 542 33,000  Level Oakland Center
04:31PM 37.0422 -119.7619 73° East 474 545 33,000  Level Oakland Center
04:32PM 37.0800 -119.6064 73° East 468 539 33,000  Level Oakland Center
04:33PM 37.1186 -119.4506 73° East 470 541 33,000  Level Oakland Center
04:34PM 37.1567 -119.2942 73° East 470 541 33,000 -60 Level Oakland Center
04:35PM 37.1933 -119.1389 73° East 467 537 32,900  Descending Oakland Center
04:36PM 37.2314 -118.9831 73° East 467 537 33,000  Climbing Oakland Center
04:37PM 37.2678 -118.8278 74° East 466 536 33,000  Level Oakland Center
04:38PM 37.3061 -118.6731 73° East 465 535 33,000  Level Oakland Center
04:39PM 37.3442 -118.5119 73° East 468 539 33,000  Level Oakland Center
04:40PM 37.3783 -118.3508 75° East 475 547 33,000  Level Oakland Center
04:41PM 37.3878 -118.1494 87° East 479 551 33,000  Level Oakland Center
04:42PM 37.3972 -117.9825 86° East 480 552 33,000  Level Oakland Center
04:44PM 37.4047 -117.8178 87° East 476 548 33,000  Level Oakland Center
04:45PM 37.4133 -117.6536 86° East 473 544 33,000  Level Oakland Center
04:46PM 37.4217 -117.4864 86° East 480 552 33,000  Level Oakland Center
04:47PM 37.3975 -117.3256 101° East 476 548 33,000  Level Oakland Center
04:48PM 37.3214 -117.1939 126° Southeast 469 540 33,000 -240 Level Oakland Center
04:49PM 37.2147 -117.1003 145° Southeast 470 541 32,600 -1,140 Descending Oakland Center
04:50PM 37.0844 -116.9928 147° Southeast 467 537 30,800 -1,320 Descending Oakland Center
04:51PM 36.9778 -116.9003 145° Southeast 466 536 30,000 -420 Descending Oakland Center
04:52PM 36.8725 -116.8114 146° Southeast 463 533 30,000  Level Oakland Center
04:53PM 36.7711 -116.7164 143° Southeast 459 528 30,000 -60 Level Oakland Center
04:54PM 36.6858 -116.5922 131° Southeast 464 534 29,900 -1,200 Descending Oakland Center
04:55PM 36.5994 -116.4678 131° Southeast 471 542 27,600 -2,340 Descending Oakland Center
04:56PM 36.5181 -116.3514 131° Southeast 461 531 25,200 -2,400 Descending Oakland Center
04:57PM 36.3969 -116.1731 130° Southeast 431 496 21,700 -2,280 Descending Los Angeles Center
04:58PM 36.3217 -116.0694 132° Southeast 408 470 19,500 -2,220 Descending Los Angeles Center
04:59PM 36.2797 -116.0122 132° Southeast 385 443 18,200 -2,040 Descending Los Angeles Center
04:59PM 36.2489 -115.9672 130° Southeast 368 423 17,400 -1,680 Descending Los Angeles Center
05:00PM 36.2153 -115.9208 132° Southeast 358 412 16,500 -1,500 Descending Los Angeles Center
05:00PM 36.1894 -115.8686 121° Southeast 333 383 15,900 -1,140 Descending Los Angeles Center
05:01PM 36.1617 -115.8397 140° Southeast 313 360 15,400 -1,200 Descending Los Angeles Center
05:02PM 36.1089 -115.7858 140° Southeast 316 364 14,400 -1,500 Descending Los Angeles Center
05:03PM 36.0422 -115.7194 141° Southeast 309 356 12,800 -1,560 Descending Los Angeles Center
05:04PM 35.9722 -115.6517 142° Southeast 301 346 11,300 -900 Descending Los Angeles Center
05:05PM 35.9064 -115.5878 142° Southeast 301 346 11,000 -660 Descending Los Angeles Center
05:06PM 35.8581 -115.5175 130° Southeast 309 356 10,000 -540 Descending Los Angeles Center
05:07PM 35.8528 -115.4069 93° East 303 349 9,900 -1,200 Descending Los Angeles Center
05:08PM 35.9175 -115.3542 33° Northeast 291 335 7,600 -1,980 Descending Los Angeles Center
05:09PM 35.9903 -115.3281 16° North 281 323 5,900 -960 Descending Los Angeles Center
05:10PM 36.0472 -115.3153 10° North 239 275 5,700 -300 Descending Los Angeles Center
05:11PM 36.1047 -115.3128 North 219 252 5,400 -1,020 Descending Los Angeles Center
05:12PM 36.0744 -115.2306 114° Southeast 203 234 3,600 -1,200 Descending Los Angeles Center
05:13PM 36.0728 -115.1761 92° East 175 201 3,000 -780 Descending Los Angeles Center
05:14PM 36.0736 -115.1369 88° East 129 148 2,100 -900 Descending Los Angeles Center